GMFF/FEZ METAR and TAF weather

Enter ICAO airport designator
Station Type Date Time Source
GMFF METAR 2021/07/24 21:00 UTC NOAA

GMFF 242100Z 27005KT 240V300 9999 SCT033 FEW040CB 28/12 Q1017 NOSIG


Station Type Date Time Source
GMFF Decoded METAR 2021/07/24 21:00 UTC NOAA

Fes-Sais, Morocco (GMFF) 33-56N 004-59W 579M
Jul 24, 2021 - 05:00 PM EDT / 2021.07.24 2100 UTC
Wind: from the W (270 degrees) at 6 MPH (5 KT) (direction variable):0
Visibility: greater than 7 mile(s):0
Sky conditions: partly cloudy
Weather: Cumulonimbus clouds observed
Temperature: 82 F (28 C)
Dew Point: 53 F (12 C)
Relative Humidity: 37%
Pressure (altimeter): 30.03 in. Hg (1017 hPa)
ob: GMFF 242100Z 27005KT 240V300 9999 SCT033 FEW040CB 28/12 Q1017 NOSIG
cycle: 21

Station Type Date Time Source
GMFF TAF 2021/07/24 18:18 UTC NOAA

TAF TAF GMFF 241700Z 2418/2524 32010KT 9999 FEW033 PROB30
TEMPO 2418/2422 SCT033 FEW040CB
BECMG 2501/2503 20005KT CAVOK
BECMG 2510/2514 32013KT

Example: see airport list